sensor_id;sensor_type;location;lat;lon;timestamp;pressure;altitude;pressure_sealevel;temperature;humidity
17373;BME280;8803;48.116;11.590;2023-07-22T00:01:32;95577.48;;;20.54;74.38
17373;BME280;8803;48.116;11.590;2023-07-22T00:05:48;95575.88;;;20.48;74.54
17373;BME280;8803;48.116;11.590;2023-07-22T00:07:53;95582.73;;;20.44;74.83
17373;BME280;8803;48.116;11.590;2023-07-22T00:09:57;95579.38;;;20.42;74.61
17373;BME280;8803;48.116;11.590;2023-07-22T00:12:01;95587.70;;;20.41;74.55
17373;BME280;8803;48.116;11.590;2023-07-22T00:14:05;95582.00;;;20.40;74.32
17373;BME280;8803;48.116;11.590;2023-07-22T00:16:09;95580.01;;;20.38;74.30
17373;BME280;8803;48.116;11.590;2023-07-22T00:20:25;95575.88;;;20.42;75.18
17373;BME280;8803;48.116;11.590;2023-07-22T00:22:29;95576.34;;;20.35;73.75
17373;BME280;8803;48.116;11.590;2023-07-22T00:24:33;95578.20;;;20.34;73.98
17373;BME280;8803;48.116;11.590;2023-07-22T00:26:37;95577.05;;;20.33;73.74
17373;BME280;8803;48.116;11.590;2023-07-22T00:28:40;95573.20;;;20.31;73.72
17373;BME280;8803;48.116;11.590;2023-07-22T00:30:45;95576.93;;;20.30;74.54
17373;BME280;8803;48.116;11.590;2023-07-22T00:32:51;95577.98;;;20.29;74.91
17373;BME280;8803;48.116;11.590;2023-07-22T00:34:55;95577.64;;;20.28;74.75
17373;BME280;8803;48.116;11.590;2023-07-22T00:36:59;95575.66;;;20.26;74.69
17373;BME280;8803;48.116;11.590;2023-07-22T00:41:15;95568.69;;;20.28;75.81
17373;BME280;8803;48.116;11.590;2023-07-22T00:43:19;95562.52;;;20.23;75.57
17373;BME280;8803;48.116;11.590;2023-07-22T00:47:36;95560.66;;;20.24;75.60
17373;BME280;8803;48.116;11.590;2023-07-22T00:49:40;95555.81;;;20.19;75.41
17373;BME280;8803;48.116;11.590;2023-07-22T00:51:45;95554.16;;;20.18;75.06
17373;BME280;8803;48.116;11.590;2023-07-22T00:53:48;95552.47;;;20.17;75.29
17373;BME280;8803;48.116;11.590;2023-07-22T00:55:52;95554.88;;;20.16;75.71
17373;BME280;8803;48.116;11.590;2023-07-22T00:57:57;95558.30;;;20.14;74.88
17373;BME280;8803;48.116;11.590;2023-07-22T01:02:14;95549.47;;;20.16;74.37
17373;BME280;8803;48.116;11.590;2023-07-22T01:06:31;95548.33;;;20.15;74.77
17373;BME280;8803;48.116;11.590;2023-07-22T01:08:36;95542.66;;;20.10;75.00
17373;BME280;8803;48.116;11.590;2023-07-22T01:10:40;95535.78;;;20.07;75.11
17373;BME280;8803;48.116;11.590;2023-07-22T01:15:00;95535.78;;;20.07;75.18
17373;BME280;8803;48.116;11.590;2023-07-22T01:19:20;95532.95;;;20.05;74.90
17373;BME280;8803;48.116;11.590;2023-07-22T01:21:24;95536.45;;;19.99;74.24
17373;BME280;8803;48.116;11.590;2023-07-22T01:25:41;95531.88;;;19.99;75.58
17373;BME280;8803;48.116;11.590;2023-07-22T01:27:46;95543.48;;;19.93;74.94
17373;BME280;8803;48.116;11.590;2023-07-22T01:29:51;95539.30;;;19.91;76.17
17373;BME280;8803;48.116;11.590;2023-07-22T01:31:56;95545.09;;;19.88;75.70
17373;BME280;8803;48.116;11.590;2023-07-22T01:34:00;95547.70;;;19.85;76.03
17373;BME280;8803;48.116;11.590;2023-07-22T01:36:04;95555.16;;;19.83;76.20
17373;BME280;8803;48.116;11.590;2023-07-22T01:38:09;95555.03;;;19.81;76.54
17373;BME280;8803;48.116;11.590;2023-07-22T01:40:13;95556.05;;;19.80;76.58
17373;BME280;8803;48.116;11.590;2023-07-22T01:42:17;95550.34;;;19.79;77.26
17373;BME280;8803;48.116;11.590;2023-07-22T01:44:21;95546.47;;;19.77;77.19
17373;BME280;8803;48.116;11.590;2023-07-22T01:46:25;95548.53;;;19.75;78.09
17373;BME280;8803;48.116;11.590;2023-07-22T01:48:28;95555.48;;;19.74;78.02
17373;BME280;8803;48.116;11.590;2023-07-22T01:50:32;95547.25;;;19.71;77.88
17373;BME280;8803;48.116;11.590;2023-07-22T01:52:36;95548.30;;;19.70;77.80
17373;BME280;8803;48.116;11.590;2023-07-22T01:54:40;95552.86;;;19.69;77.61
17373;BME280;8803;48.116;11.590;2023-07-22T01:56:44;95554.41;;;19.68;77.96
17373;BME280;8803;48.116;11.590;2023-07-22T02:01:01;95550.09;;;19.74;78.11
17373;BME280;8803;48.116;11.590;2023-07-22T02:03:05;95556.53;;;19.73;76.92
17373;BME280;8803;48.116;11.590;2023-07-22T02:05:09;95556.00;;;19.73;77.11
17373;BME280;8803;48.116;11.590;2023-07-22T02:07:13;95550.93;;;19.74;77.35
17373;BME280;8803;48.116;11.590;2023-07-22T02:09:17;95556.63;;;19.75;77.54
17373;BME280;8803;48.116;11.590;2023-07-22T02:11:21;95552.08;;;19.76;77.77
17373;BME280;8803;48.116;11.590;2023-07-22T02:13:25;95551.56;;;19.76;78.16
17373;BME280;8803;48.116;11.590;2023-07-22T02:15:29;95553.94;;;19.75;77.67
17373;BME280;8803;48.116;11.590;2023-07-22T02:17:32;95556.13;;;19.76;77.22
17373;BME280;8803;48.116;11.590;2023-07-22T02:19:36;95555.28;;;19.75;77.44
17373;BME280;8803;48.116;11.590;2023-07-22T02:21:40;95558.83;;;19.76;77.35
17373;BME280;8803;48.116;11.590;2023-07-22T02:23:45;95559.54;;;19.74;77.49
17373;BME280;8803;48.116;11.590;2023-07-22T02:25:50;95561.61;;;19.72;77.54
17373;BME280;8803;48.116;11.590;2023-07-22T02:27:54;95567.64;;;19.74;76.34
17373;BME280;8803;48.116;11.590;2023-07-22T02:29:58;95556.84;;;19.74;77.85
17373;BME280;8803;48.116;11.590;2023-07-22T02:34:14;95555.92;;;19.77;77.36
17373;BME280;8803;48.116;11.590;2023-07-22T02:36:19;95562.45;;;19.72;76.99
17373;BME280;8803;48.116;11.590;2023-07-22T02:40:36;95560.38;;;19.74;77.27
17373;BME280;8803;48.116;11.590;2023-07-22T02:42:40;95558.47;;;19.68;77.32
17373;BME280;8803;48.116;11.590;2023-07-22T02:46:56;95560.66;;;19.68;78.24
17373;BME280;8803;48.116;11.590;2023-07-22T02:49:00;95567.66;;;19.63;78.31
17373;BME280;8803;48.116;11.590;2023-07-22T02:51:05;95565.16;;;19.61;77.98
17373;BME280;8803;48.116;11.590;2023-07-22T02:53:09;95567.86;;;19.61;77.68
17373;BME280;8803;48.116;11.590;2023-07-22T02:55:14;95568.37;;;19.61;77.42
17373;BME280;8803;48.116;11.590;2023-07-22T02:57:21;95571.07;;;19.61;77.63
17373;BME280;8803;48.116;11.590;2023-07-22T02:59:24;95569.72;;;19.61;78.07
17373;BME280;8803;48.116;11.590;2023-07-22T03:01:28;95570.23;;;19.60;78.03
17373;BME280;8803;48.116;11.590;2023-07-22T03:03:33;95571.78;;;19.59;78.03
17373;BME280;8803;48.116;11.590;2023-07-22T03:05:37;95576.34;;;19.58;77.83
17373;BME280;8803;48.116;11.590;2023-07-22T03:07:42;95575.19;;;19.57;78.50
17373;BME280;8803;48.116;11.590;2023-07-22T03:09:46;95568.14;;;19.56;78.11
17373;BME280;8803;48.116;11.590;2023-07-22T03:11:49;95572.86;;;19.54;77.87
17373;BME280;8803;48.116;11.590;2023-07-22T03:13:53;95577.12;;;19.52;78.94
17373;BME280;8803;48.116;11.590;2023-07-22T03:15:57;95573.78;;;19.50;79.10
17373;BME280;8803;48.116;11.590;2023-07-22T03:20:13;95569.42;;;19.49;78.09
17373;BME280;8803;48.116;11.590;2023-07-22T03:22:19;95572.70;;;19.45;78.55
17373;BME280;8803;48.116;11.590;2023-07-22T03:26:35;95568.78;;;19.47;77.82
17373;BME280;8803;48.116;11.590;2023-07-22T03:28:39;95581.81;;;19.44;78.43
17373;BME280;8803;48.116;11.590;2023-07-22T03:30:43;95573.07;;;19.42;77.79
17373;BME280;8803;48.116;11.590;2023-07-22T03:32:48;95576.81;;;19.41;77.85
17373;BME280;8803;48.116;11.590;2023-07-22T03:34:53;95571.08;;;19.40;77.70
17373;BME280;8803;48.116;11.590;2023-07-22T03:36:57;95572.43;;;19.40;77.79
17373;BME280;8803;48.116;11.590;2023-07-22T03:39:01;95571.92;;;19.40;78.86
17373;BME280;8803;48.116;11.590;2023-07-22T03:41:06;95582.22;;;19.41;78.36
17373;BME280;8803;48.116;11.590;2023-07-22T03:43:10;95576.48;;;19.40;78.00
17373;BME280;8803;48.116;11.590;2023-07-22T03:45:14;95574.93;;;19.41;77.59
17373;BME280;8803;48.116;11.590;2023-07-22T03:47:18;95578.98;;;19.41;77.55
17373;BME280;8803;48.116;11.590;2023-07-22T03:51:35;95575.53;;;19.47;78.02
17373;BME280;8803;48.116;11.590;2023-07-22T03:53:39;95581.64;;;19.45;77.46
17373;BME280;8803;48.116;11.590;2023-07-22T03:57:55;95580.33;;;19.52;78.38
17373;BME280;8803;48.116;11.590;2023-07-22T03:59:59;95584.45;;;19.48;77.73
17373;BME280;8803;48.116;11.590;2023-07-22T04:02:03;95585.80;;;19.48;79.88
17373;BME280;8803;48.116;11.590;2023-07-22T04:06:20;95586.06;;;19.53;78.09
17373;BME280;8803;48.116;11.590;2023-07-22T04:08:24;95589.47;;;19.51;77.53
17373;BME280;8803;48.116;11.590;2023-07-22T04:10:28;95593.33;;;19.52;77.31
17373;BME280;8803;48.116;11.590;2023-07-22T04:12:31;95594.30;;;19.55;76.66
17373;BME280;8803;48.116;11.590;2023-07-22T04:14:35;95593.72;;;19.60;76.99
17373;BME280;8803;48.116;11.590;2023-07-22T04:16:39;95593.11;;;19.64;77.29
17373;BME280;8803;48.116;11.590;2023-07-22T04:20:57;95598.98;;;19.79;75.85
17373;BME280;8803;48.116;11.590;2023-07-22T04:23:01;95607.39;;;19.80;75.95
17373;BME280;8803;48.116;11.590;2023-07-22T04:27:18;95606.48;;;19.94;75.66
17373;BME280;8803;48.116;11.590;2023-07-22T04:29:23;95606.59;;;19.96;75.14
17373;BME280;8803;48.116;11.590;2023-07-22T04:33:39;95607.03;;;20.10;75.51
17373;BME280;8803;48.116;11.590;2023-07-22T04:35:43;95605.98;;;20.11;75.06
17373;BME280;8803;48.116;11.590;2023-07-22T04:37:47;95613.51;;;20.16;74.51
17373;BME280;8803;48.116;11.590;2023-07-22T04:39:51;95607.55;;;20.20;74.52
17373;BME280;8803;48.116;11.590;2023-07-22T04:41:55;95608.44;;;20.27;75.90
17373;BME280;8803;48.116;11.590;2023-07-22T04:43:59;95598.69;;;20.33;74.42
17373;BME280;8803;48.116;11.590;2023-07-22T04:46:02;95594.59;;;20.43;74.01
17373;BME280;8803;48.116;11.590;2023-07-22T04:50:19;95582.08;;;21.24;72.66
17373;BME280;8803;48.116;11.590;2023-07-22T04:52:23;95586.52;;;21.71;71.16
17373;BME280;8803;48.116;11.590;2023-07-22T04:56:40;95592.10;;;22.74;67.30
17373;BME280;8803;48.116;11.590;2023-07-22T04:58:44;95593.16;;;23.02;66.02
17373;BME280;8803;48.116;11.590;2023-07-22T05:03:00;95599.66;;;23.01;64.67
17373;BME280;8803;48.116;11.590;2023-07-22T05:07:18;95589.25;;;22.85;64.42
17373;BME280;8803;48.116;11.590;2023-07-22T05:09:21;95595.05;;;22.72;64.48
17373;BME280;8803;48.116;11.590;2023-07-22T05:11:25;95589.01;;;22.64;65.14
17373;BME280;8803;48.116;11.590;2023-07-22T05:13:29;95597.48;;;22.58;65.07
17373;BME280;8803;48.116;11.590;2023-07-22T05:15:33;95596.63;;;22.51;64.96
17373;BME280;8803;48.116;11.590;2023-07-22T05:17:36;95597.70;;;22.44;65.09
17373;BME280;8803;48.116;11.590;2023-07-22T05:19:40;95600.42;;;22.37;66.10
17373;BME280;8803;48.116;11.590;2023-07-22T05:21:44;95603.24;;;22.33;66.15
17373;BME280;8803;48.116;11.590;2023-07-22T05:26:02;95605.84;;;22.37;66.86
17373;BME280;8803;48.116;11.590;2023-07-22T05:30:19;95603.64;;;22.37;66.48
17373;BME280;8803;48.116;11.590;2023-07-22T05:32:22;95608.23;;;22.30;66.04
17373;BME280;8803;48.116;11.590;2023-07-22T05:34:26;95606.07;;;22.23;66.74
17373;BME280;8803;48.116;11.590;2023-07-22T05:36:30;95610.25;;;22.19;66.31
17373;BME280;8803;48.116;11.590;2023-07-22T05:38:34;95602.11;;;22.19;66.25
17373;BME280;8803;48.116;11.590;2023-07-22T05:40:38;95602.30;;;22.17;66.84
17373;BME280;8803;48.116;11.590;2023-07-22T05:42:42;95604.28;;;22.13;66.55
17373;BME280;8803;48.116;11.590;2023-07-22T05:44:45;95602.95;;;22.06;66.76
17373;BME280;8803;48.116;11.590;2023-07-22T05:49:02;95604.20;;;21.97;66.98
17373;BME280;8803;48.116;11.590;2023-07-22T05:53:20;95600.01;;;21.88;67.18
17373;BME280;8803;48.116;11.590;2023-07-22T05:55:24;95610.52;;;21.80;66.99
17373;BME280;8803;48.116;11.590;2023-07-22T05:57:29;95607.80;;;21.80;67.79
17373;BME280;8803;48.116;11.590;2023-07-22T06:01:45;95605.24;;;21.83;67.61
17373;BME280;8803;48.116;11.590;2023-07-22T06:03:49;95608.98;;;21.82;67.23
17373;BME280;8803;48.116;11.590;2023-07-22T06:08:05;95611.09;;;21.99;66.92
17373;BME280;8803;48.116;11.590;2023-07-22T06:10:10;95615.78;;;22.02;66.48
17373;BME280;8803;48.116;11.590;2023-07-22T06:14:27;95613.88;;;22.22;66.38
17373;BME280;8803;48.116;11.590;2023-07-22T06:16:31;95626.41;;;22.29;65.55
17373;BME280;8803;48.116;11.590;2023-07-22T06:18:34;95630.37;;;22.40;65.10
17373;BME280;8803;48.116;11.590;2023-07-22T06:20:38;95630.88;;;22.52;64.86
17373;BME280;8803;48.116;11.590;2023-07-22T06:22:42;95634.12;;;22.65;64.16
17373;BME280;8803;48.116;11.590;2023-07-22T06:24:46;95628.13;;;22.72;63.88
17373;BME280;8803;48.116;11.590;2023-07-22T06:26:49;95628.52;;;22.82;63.57
17373;BME280;8803;48.116;11.590;2023-07-22T06:31:06;95626.63;;;23.46;62.00
17373;BME280;8803;48.116;11.590;2023-07-22T06:33:10;95627.33;;;24.04;60.52
17373;BME280;8803;48.116;11.590;2023-07-22T06:35:14;95634.44;;;24.79;58.33
17373;BME280;8803;48.116;11.590;2023-07-22T06:37:17;95628.91;;;25.49;56.59
17373;BME280;8803;48.116;11.590;2023-07-22T06:39:21;95627.84;;;26.30;54.22
17373;BME280;8803;48.116;11.590;2023-07-22T06:41:25;95627.84;;;26.30;54.22
17373;BME280;8803;48.116;11.590;2023-07-22T06:43:29;95624.45;;;26.26;53.96
17373;BME280;8803;48.116;11.590;2023-07-22T06:47:46;95620.20;;;26.09;53.90
17373;BME280;8803;48.116;11.590;2023-07-22T06:49:50;95628.27;;;25.95;53.67
17373;BME280;8803;48.116;11.590;2023-07-22T06:51:53;95630.35;;;25.81;53.00
17373;BME280;8803;48.116;11.590;2023-07-22T06:56:10;95629.50;;;25.51;52.77
17373;BME280;8803;48.116;11.590;2023-07-22T06:58:13;95634.13;;;25.33;52.76
17373;BME280;8803;48.116;11.590;2023-07-22T07:00:17;95637.84;;;25.20;52.16
17373;BME280;8803;48.116;11.590;2023-07-22T07:02:21;95633.63;;;25.15;52.44
17373;BME280;8803;48.116;11.590;2023-07-22T07:04:25;95633.63;;;25.15;52.44
17373;BME280;8803;48.116;11.590;2023-07-22T07:06:30;95636.79;;;25.12;52.30
17373;BME280;8803;48.116;11.590;2023-07-22T07:08:34;95633.02;;;25.13;52.30
17373;BME280;8803;48.116;11.590;2023-07-22T07:10:38;95634.08;;;25.21;52.44
17373;BME280;8803;48.116;11.590;2023-07-22T07:12:42;95617.69;;;25.39;52.01
17373;BME280;8803;48.116;11.590;2023-07-22T07:14:46;95632.66;;;25.66;51.32
17373;BME280;8803;48.116;11.590;2023-07-22T07:19:04;95633.52;;;25.58;51.28
17373;BME280;8803;48.116;11.590;2023-07-22T07:21:08;95642.41;;;25.44;51.09
17373;BME280;8803;48.116;11.590;2023-07-22T07:25:26;95636.64;;;25.34;51.28
17373;BME280;8803;48.116;11.590;2023-07-22T07:27:30;95639.13;;;25.27;51.17
17373;BME280;8803;48.116;11.590;2023-07-22T07:31:46;95638.09;;;25.84;50.04
17373;BME280;8803;48.116;11.590;2023-07-22T07:33:50;95635.66;;;26.71;47.83
17373;BME280;8803;48.116;11.590;2023-07-22T07:35:54;95632.97;;;27.57;46.14
17373;BME280;8803;48.116;11.590;2023-07-22T07:37:58;95634.64;;;27.86;45.11
17373;BME280;8803;48.116;11.590;2023-07-22T07:40:02;95640.50;;;27.92;44.53
17373;BME280;8803;48.116;11.590;2023-07-22T07:42:07;95636.05;;;28.47;43.32
17373;BME280;8803;48.116;11.590;2023-07-22T07:44:11;95642.36;;;28.98;42.31
17373;BME280;8803;48.116;11.590;2023-07-22T07:46:16;95639.75;;;29.24;42.10
17373;BME280;8803;48.116;11.590;2023-07-22T07:48:21;95634.88;;;29.29;41.89
17373;BME280;8803;48.116;11.590;2023-07-22T07:50:25;95639.88;;;29.32;41.51
17373;BME280;8803;48.116;11.590;2023-07-22T07:52:29;95630.23;;;29.29;41.29
17373;BME280;8803;48.116;11.590;2023-07-22T07:54:32;95637.32;;;29.28;41.13
17373;BME280;8803;48.116;11.590;2023-07-22T07:56:36;95638.50;;;29.32;41.65
17373;BME280;8803;48.116;11.590;2023-07-22T07:58:40;95637.22;;;29.39;41.13
17373;BME280;8803;48.116;11.590;2023-07-22T08:02:57;95637.99;;;29.56;40.39
17373;BME280;8803;48.116;11.590;2023-07-22T08:05:00;95644.55;;;29.53;39.61
17373;BME280;8803;48.116;11.590;2023-07-22T08:07:06;95643.36;;;29.46;39.47
17373;BME280;8803;48.116;11.590;2023-07-22T08:09:11;95641.77;;;29.50;39.66
17373;BME280;8803;48.116;11.590;2023-07-22T08:11:16;95638.48;;;29.53;38.69
17373;BME280;8803;48.116;11.590;2023-07-22T08:13:20;95641.62;;;29.62;38.77
17373;BME280;8803;48.116;11.590;2023-07-22T08:15:24;95636.66;;;29.61;38.40
17373;BME280;8803;48.116;11.590;2023-07-22T08:17:29;95635.90;;;29.66;38.39
17373;BME280;8803;48.116;11.590;2023-07-22T08:21:46;95635.38;;;29.88;38.89
17373;BME280;8803;48.116;11.590;2023-07-22T08:23:49;95636.79;;;29.91;38.51
17373;BME280;8803;48.116;11.590;2023-07-22T08:28:06;95639.64;;;30.01;38.05
17373;BME280;8803;48.116;11.590;2023-07-22T08:32:23;95636.66;;;30.05;37.55
17373;BME280;8803;48.116;11.590;2023-07-22T08:34:27;95640.75;;;30.02;37.20
17373;BME280;8803;48.116;11.590;2023-07-22T08:36:31;95636.36;;;30.04;37.08
17373;BME280;8803;48.116;11.590;2023-07-22T08:38:35;95636.13;;;30.08;36.87
17373;BME280;8803;48.116;11.590;2023-07-22T08:42:53;95631.33;;;30.20;36.70
17373;BME280;8803;48.116;11.590;2023-07-22T08:44:58;95636.22;;;30.15;36.47
17373;BME280;8803;48.116;11.590;2023-07-22T08:47:05;95640.34;;;30.15;36.33
17373;BME280;8803;48.116;11.590;2023-07-22T08:49:10;95633.17;;;30.14;35.98
17373;BME280;8803;48.116;11.590;2023-07-22T08:51:17;95635.11;;;30.16;36.11
17373;BME280;8803;48.116;11.590;2023-07-22T08:53:21;95634.31;;;30.16;35.95
17373;BME280;8803;48.116;11.590;2023-07-22T08:55:26;95629.59;;;30.11;35.45
17373;BME280;8803;48.116;11.590;2023-07-22T08:57:31;95631.50;;;30.11;35.68
17373;BME280;8803;48.116;11.590;2023-07-22T08:59:36;95627.64;;;30.09;35.70
17373;BME280;8803;48.116;11.590;2023-07-22T09:01:40;95629.28;;;30.10;35.64
17373;BME280;8803;48.116;11.590;2023-07-22T09:03:44;95636.73;;;30.12;35.90
17373;BME280;8803;48.116;11.590;2023-07-22T09:05:50;95636.99;;;30.11;35.47
17373;BME280;8803;48.116;11.590;2023-07-22T09:07:54;95633.17;;;30.12;35.67
17373;BME280;8803;48.116;11.590;2023-07-22T09:09:59;95627.88;;;30.08;34.79
17373;BME280;8803;48.116;11.590;2023-07-22T09:12:06;95631.73;;;30.07;34.88
17373;BME280;8803;48.116;11.590;2023-07-22T09:14:10;95624.80;;;30.02;34.45
17373;BME280;8803;48.116;11.590;2023-07-22T09:18:28;95622.36;;;30.03;34.92
17373;BME280;8803;48.116;11.590;2023-07-22T09:20:32;95621.69;;;29.91;34.54
17373;BME280;8803;48.116;11.590;2023-07-22T09:24:49;95616.43;;;29.89;35.12
17373;BME280;8803;48.116;11.590;2023-07-22T09:26:53;95618.80;;;29.78;34.86
17373;BME280;8803;48.116;11.590;2023-07-22T09:28:58;95626.06;;;29.68;34.77
17373;BME280;8803;48.116;11.590;2023-07-22T09:31:03;95620.72;;;29.58;34.55
17373;BME280;8803;48.116;11.590;2023-07-22T09:33:08;95625.03;;;29.52;34.30
17373;BME280;8803;48.116;11.590;2023-07-22T09:35:13;95621.98;;;29.48;34.28
17373;BME280;8803;48.116;11.590;2023-07-22T09:37:17;95621.67;;;29.47;34.40
17373;BME280;8803;48.116;11.590;2023-07-22T09:39:21;95612.07;;;29.47;34.60
17373;BME280;8803;48.116;11.590;2023-07-22T09:41:27;95615.34;;;29.44;34.27
17373;BME280;8803;48.116;11.590;2023-07-22T09:43:35;95615.27;;;29.39;34.19
17373;BME280;8803;48.116;11.590;2023-07-22T09:47:50;95611.65;;;29.36;34.22
17373;BME280;8803;48.116;11.590;2023-07-22T09:49:54;95606.08;;;29.29;34.19
17373;BME280;8803;48.116;11.590;2023-07-22T09:54:11;95610.42;;;29.25;34.15
17373;BME280;8803;48.116;11.590;2023-07-22T09:56:14;95610.33;;;29.17;34.06
17373;BME280;8803;48.116;11.590;2023-07-22T09:58:18;95607.47;;;29.12;34.16
17373;BME280;8803;48.116;11.590;2023-07-22T10:00:25;95611.27;;;29.09;34.08
17373;BME280;8803;48.116;11.590;2023-07-22T10:02:30;95612.48;;;28.99;34.10
17373;BME280;8803;48.116;11.590;2023-07-22T10:04:37;95615.91;;;28.89;34.45
17373;BME280;8803;48.116;11.590;2023-07-22T10:08:56;95605.06;;;28.61;34.58
17373;BME280;8803;48.116;11.590;2023-07-22T10:11:01;95607.83;;;28.47;34.40
17373;BME280;8803;48.116;11.590;2023-07-22T10:13:06;95599.55;;;28.44;34.84
17373;BME280;8803;48.116;11.590;2023-07-22T10:15:12;95601.44;;;28.41;35.02
17373;BME280;8803;48.116;11.590;2023-07-22T10:17:16;95597.56;;;28.40;34.85
17373;BME280;8803;48.116;11.590;2023-07-22T10:19:21;95593.22;;;28.41;34.88
17373;BME280;8803;48.116;11.590;2023-07-22T10:21:26;95598.66;;;28.39;34.72
17373;BME280;8803;48.116;11.590;2023-07-22T10:23:32;95590.12;;;28.35;34.89
17373;BME280;8803;48.116;11.590;2023-07-22T10:27:51;95592.50;;;28.32;35.14
17373;BME280;8803;48.116;11.590;2023-07-22T10:29:55;95587.12;;;28.20;35.12
17373;BME280;8803;48.116;11.590;2023-07-22T10:32:00;95593.74;;;28.07;35.07
17373;BME280;8803;48.116;11.590;2023-07-22T10:34:04;95595.66;;;27.95;35.01
17373;BME280;8803;48.116;11.590;2023-07-22T10:36:12;95588.70;;;27.88;35.16
17373;BME280;8803;48.116;11.590;2023-07-22T10:38:15;95589.95;;;27.83;35.21
17373;BME280;8803;48.116;11.590;2023-07-22T10:42:37;95587.48;;;27.81;35.58
17373;BME280;8803;48.116;11.590;2023-07-22T10:44:41;95593.60;;;27.72;35.40
17373;BME280;8803;48.116;11.590;2023-07-22T10:49:12;95591.06;;;27.68;35.48
17373;BME280;8803;48.116;11.590;2023-07-22T10:51:16;95583.00;;;27.61;35.08
17373;BME280;8803;48.116;11.590;2023-07-22T10:53:30;95579.96;;;27.60;35.03
17373;BME280;8803;48.116;11.590;2023-07-22T10:55:33;95579.69;;;27.59;35.28
17373;BME280;8803;48.116;11.590;2023-07-22T10:57:48;95583.98;;;27.55;35.08
17373;BME280;8803;48.116;11.590;2023-07-22T10:59:54;95571.31;;;27.52;35.01
17373;BME280;8803;48.116;11.590;2023-07-22T11:04:24;95555.09;;;27.48;35.05
17373;BME280;8803;48.116;11.590;2023-07-22T11:06:30;95562.86;;;27.39;34.73
17373;BME280;8803;48.116;11.590;2023-07-22T11:08:38;95559.54;;;27.37;34.83
17373;BME280;8803;48.116;11.590;2023-07-22T11:10:53;95562.02;;;27.38;34.96
17373;BME280;8803;48.116;11.590;2023-07-22T11:12:57;95553.06;;;27.41;34.88
17373;BME280;8803;48.116;11.590;2023-07-22T11:15:05;95559.92;;;27.43;34.93
17373;BME280;8803;48.116;11.590;2023-07-22T11:17:09;95548.77;;;27.45;35.03
17373;BME280;8803;48.116;11.590;2023-07-22T11:19:14;95548.00;;;27.49;35.02
17373;BME280;8803;48.116;11.590;2023-07-22T11:21:18;95543.09;;;27.49;35.41
17373;BME280;8803;48.116;11.590;2023-07-22T11:23:22;95540.89;;;27.48;35.08
17373;BME280;8803;48.116;11.590;2023-07-22T11:27:38;95532.16;;;27.49;34.76
17373;BME280;8803;48.116;11.590;2023-07-22T11:29:43;95529.84;;;27.43;34.59
17373;BME280;8803;48.116;11.590;2023-07-22T11:34:03;95526.25;;;27.40;34.82
17373;BME280;8803;48.116;11.590;2023-07-22T11:36:07;95534.65;;;27.36;34.80
17373;BME280;8803;48.116;11.590;2023-07-22T11:38:12;95525.83;;;27.34;34.74
17373;BME280;8803;48.116;11.590;2023-07-22T11:40:16;95521.36;;;27.30;34.66
17373;BME280;8803;48.116;11.590;2023-07-22T11:42:19;95518.88;;;27.29;34.70
17373;BME280;8803;48.116;11.590;2023-07-22T11:44:26;95517.77;;;27.27;34.70
17373;BME280;8803;48.116;11.590;2023-07-22T11:48:50;95522.45;;;27.29;35.01
17373;BME280;8803;48.116;11.590;2023-07-22T11:53:11;95513.41;;;27.29;34.77
17373;BME280;8803;48.116;11.590;2023-07-22T11:55:15;95510.77;;;27.20;34.34
17373;BME280;8803;48.116;11.590;2023-07-22T11:57:22;95510.57;;;27.10;34.20
17373;BME280;8803;48.116;11.590;2023-07-22T11:59:39;95505.18;;;27.01;34.58
17373;BME280;8803;48.116;11.590;2023-07-22T12:01:45;95503.79;;;26.98;34.82
17373;BME280;8803;48.116;11.590;2023-07-22T12:03:54;95503.03;;;26.89;34.57
17373;BME280;8803;48.116;11.590;2023-07-22T12:05:55;95498.78;;;26.81;34.74
17373;BME280;8803;48.116;11.590;2023-07-22T12:07:58;95506.39;;;26.79;35.65
17373;BME280;8803;48.116;11.590;2023-07-22T12:10:05;95492.36;;;26.76;35.85
17373;BME280;8803;48.116;11.590;2023-07-22T12:12:10;95486.56;;;26.72;35.49
17373;BME280;8803;48.116;11.590;2023-07-22T12:14:14;95495.97;;;26.67;35.07
17373;BME280;8803;48.116;11.590;2023-07-22T12:16:23;95483.15;;;26.68;35.39
17373;BME280;8803;48.116;11.590;2023-07-22T12:18:27;95493.80;;;26.67;35.48
17373;BME280;8803;48.116;11.590;2023-07-22T12:20:32;95490.76;;;26.66;35.82
17373;BME280;8803;48.116;11.590;2023-07-22T12:22:37;95488.86;;;26.66;35.81
17373;BME280;8803;48.116;11.590;2023-07-22T12:24:41;95482.09;;;26.69;35.63
17373;BME280;8803;48.116;11.590;2023-07-22T12:26:45;95482.90;;;26.69;35.29
17373;BME280;8803;48.116;11.590;2023-07-22T12:28:49;95481.45;;;26.64;35.11
17373;BME280;8803;48.116;11.590;2023-07-22T12:30:52;95486.97;;;26.67;35.28
17373;BME280;8803;48.116;11.590;2023-07-22T12:32:57;95473.25;;;26.64;35.76
17373;BME280;8803;48.116;11.590;2023-07-22T12:35:01;95484.42;;;26.63;35.52
17373;BME280;8803;48.116;11.590;2023-07-22T12:37:06;95476.83;;;26.53;35.73
17373;BME280;8803;48.116;11.590;2023-07-22T12:39:10;95469.94;;;26.50;35.92
17373;BME280;8803;48.116;11.590;2023-07-22T12:41:14;95467.12;;;26.45;35.83
17373;BME280;8803;48.116;11.590;2023-07-22T12:45:30;95466.06;;;26.35;34.89
17373;BME280;8803;48.116;11.590;2023-07-22T12:47:34;95468.27;;;26.35;35.22
17373;BME280;8803;48.116;11.590;2023-07-22T12:51:51;95468.80;;;26.35;34.93
17373;BME280;8803;48.116;11.590;2023-07-22T12:53:55;95473.35;;;26.32;35.17
17373;BME280;8803;48.116;11.590;2023-07-22T12:58:11;95461.25;;;26.39;36.18
17373;BME280;8803;48.116;11.590;2023-07-22T13:00:16;95461.47;;;26.38;36.03
17373;BME280;8803;48.116;11.590;2023-07-22T13:02:19;95465.56;;;26.38;36.00
17373;BME280;8803;48.116;11.590;2023-07-22T13:04:25;95467.52;;;26.40;36.35
17373;BME280;8803;48.116;11.590;2023-07-22T13:06:29;95459.89;;;26.39;36.27
17373;BME280;8803;48.116;11.590;2023-07-22T13:08:33;95460.94;;;26.38;36.62
17373;BME280;8803;48.116;11.590;2023-07-22T13:10:36;95458.22;;;26.38;37.02